sensor_id;sensor_type;location;lat;lon;timestamp;pressure;altitude;pressure_sealevel;temperature;humidity
76128;BME280;64873;50.102;14.434;2023-07-31T00:00:55;99213.38;;;15.63;75.86
76128;BME280;64873;50.102;14.434;2023-07-31T00:03:21;99208.06;;;15.51;76.04
76128;BME280;64873;50.102;14.434;2023-07-31T00:05:46;99216.72;;;15.53;76.21
76128;BME280;64873;50.102;14.434;2023-07-31T00:08:11;99195.75;;;15.55;76.06
76128;BME280;64873;50.102;14.434;2023-07-31T00:10:37;99209.16;;;15.50;75.78
76128;BME280;64873;50.102;14.434;2023-07-31T00:13:02;99205.28;;;15.63;75.77
76128;BME280;64873;50.102;14.434;2023-07-31T00:15:28;99208.69;;;15.58;75.03
76128;BME280;64873;50.102;14.434;2023-07-31T00:17:53;99208.88;;;15.52;75.99
76128;BME280;64873;50.102;14.434;2023-07-31T00:20:19;99213.00;;;15.59;75.10
76128;BME280;64873;50.102;14.434;2023-07-31T00:22:44;99214.72;;;15.43;75.12
76128;BME280;64873;50.102;14.434;2023-07-31T00:25:10;99215.47;;;15.39;75.49
76128;BME280;64873;50.102;14.434;2023-07-31T00:27:35;99207.94;;;15.41;76.35
76128;BME280;64873;50.102;14.434;2023-07-31T00:30:01;99206.38;;;15.45;76.31
76128;BME280;64873;50.102;14.434;2023-07-31T00:32:26;99213.78;;;15.33;76.04
76128;BME280;64873;50.102;14.434;2023-07-31T00:34:51;99212.97;;;15.32;76.05
76128;BME280;64873;50.102;14.434;2023-07-31T00:37:17;99206.44;;;15.28;75.50
76128;BME280;64873;50.102;14.434;2023-07-31T00:39:42;99207.38;;;15.39;75.09
76128;BME280;64873;50.102;14.434;2023-07-31T00:42:08;99210.88;;;15.39;75.84
76128;BME280;64873;50.102;14.434;2023-07-31T00:44:33;99208.13;;;15.34;74.98
76128;BME280;64873;50.102;14.434;2023-07-31T00:46:59;99203.00;;;15.33;74.49
76128;BME280;64873;50.102;14.434;2023-07-31T00:49:25;99214.06;;;15.14;75.24
76128;BME280;64873;50.102;14.434;2023-07-31T00:51:51;99213.06;;;15.20;74.16
76128;BME280;64873;50.102;14.434;2023-07-31T00:54:16;99210.84;;;15.56;72.88
76128;BME280;64873;50.102;14.434;2023-07-31T00:56:47;99198.69;;;15.32;73.47
76128;BME280;64873;50.102;14.434;2023-07-31T00:59:13;99199.03;;;15.40;74.20
76128;BME280;64873;50.102;14.434;2023-07-31T01:01:40;99197.16;;;15.41;73.68
76128;BME280;64873;50.102;14.434;2023-07-31T01:04:05;99203.19;;;15.48;74.33
76128;BME280;64873;50.102;14.434;2023-07-31T01:06:37;99205.75;;;15.38;74.40
76128;BME280;64873;50.102;14.434;2023-07-31T01:09:18;99208.44;;;15.38;73.22
76128;BME280;64873;50.102;14.434;2023-07-31T01:11:52;99205.06;;;15.26;73.98
76128;BME280;64873;50.102;14.434;2023-07-31T01:14:18;99200.22;;;15.28;73.39
76128;BME280;64873;50.102;14.434;2023-07-31T01:16:44;99208.06;;;15.29;73.77
76128;BME280;64873;50.102;14.434;2023-07-31T01:19:10;99191.47;;;15.59;70.85
76128;BME280;64873;50.102;14.434;2023-07-31T01:24:19;99191.44;;;15.54;71.69
76128;BME280;64873;50.102;14.434;2023-07-31T01:26:49;99191.91;;;15.51;70.87
76128;BME280;64873;50.102;14.434;2023-07-31T01:32:12;99182.66;;;15.42;71.39
76128;BME280;64873;50.102;14.434;2023-07-31T01:34:39;99179.31;;;15.57;70.41
76128;BME280;64873;50.102;14.434;2023-07-31T01:37:06;99176.13;;;15.38;70.67
76128;BME280;64873;50.102;14.434;2023-07-31T01:39:31;99181.66;;;15.48;69.65
76128;BME280;64873;50.102;14.434;2023-07-31T01:41:57;99180.84;;;15.26;71.19
76128;BME280;64873;50.102;14.434;2023-07-31T01:44:22;99166.03;;;15.28;71.35
76128;BME280;64873;50.102;14.434;2023-07-31T01:46:48;99168.38;;;15.19;71.13
76128;BME280;64873;50.102;14.434;2023-07-31T01:49:13;99163.31;;;15.06;72.07
76128;BME280;64873;50.102;14.434;2023-07-31T01:51:38;99164.22;;;15.34;70.93
76128;BME280;64873;50.102;14.434;2023-07-31T01:54:04;99159.97;;;15.38;70.91
76128;BME280;64873;50.102;14.434;2023-07-31T01:56:30;99156.72;;;15.36;71.89
76128;BME280;64873;50.102;14.434;2023-07-31T01:58:55;99160.38;;;15.25;72.54
76128;BME280;64873;50.102;14.434;2023-07-31T02:01:21;99149.75;;;15.18;73.12
76128;BME280;64873;50.102;14.434;2023-07-31T02:03:46;99158.91;;;15.17;73.07
76128;BME280;64873;50.102;14.434;2023-07-31T02:06:12;99164.22;;;15.12;72.94
76128;BME280;64873;50.102;14.434;2023-07-31T02:08:37;99157.94;;;15.06;73.82
76128;BME280;64873;50.102;14.434;2023-07-31T02:11:03;99158.78;;;15.07;73.61
76128;BME280;64873;50.102;14.434;2023-07-31T02:13:28;99152.88;;;15.10;73.33
76128;BME280;64873;50.102;14.434;2023-07-31T02:15:54;99157.81;;;14.96;73.73
76128;BME280;64873;50.102;14.434;2023-07-31T02:18:19;99153.56;;;15.00;73.96
76128;BME280;64873;50.102;14.434;2023-07-31T02:20:49;99153.56;;;15.00;73.39
76128;BME280;64873;50.102;14.434;2023-07-31T02:23:16;99160.41;;;15.08;73.39
76128;BME280;64873;50.102;14.434;2023-07-31T02:25:41;99152.44;;;14.96;73.17
76128;BME280;64873;50.102;14.434;2023-07-31T02:28:07;99147.44;;;15.05;73.27
76128;BME280;64873;50.102;14.434;2023-07-31T02:30:32;99152.75;;;15.00;73.04
76128;BME280;64873;50.102;14.434;2023-07-31T02:32:57;99156.03;;;15.02;73.24
76128;BME280;64873;50.102;14.434;2023-07-31T02:35:23;99153.88;;;15.04;72.71
76128;BME280;64873;50.102;14.434;2023-07-31T02:37:48;99155.22;;;15.01;73.50
76128;BME280;64873;50.102;14.434;2023-07-31T02:40:14;99160.34;;;15.03;73.33
76128;BME280;64873;50.102;14.434;2023-07-31T02:42:39;99151.44;;;15.02;72.97
76128;BME280;64873;50.102;14.434;2023-07-31T02:45:05;99147.69;;;15.03;72.90
76128;BME280;64873;50.102;14.434;2023-07-31T02:47:31;99147.69;;;15.03;72.22
76128;BME280;64873;50.102;14.434;2023-07-31T02:49:56;99148.31;;;15.10;72.54
76128;BME280;64873;50.102;14.434;2023-07-31T02:52:21;99153.16;;;15.08;72.16
76128;BME280;64873;50.102;14.434;2023-07-31T02:54:47;99154.22;;;15.07;71.62
76128;BME280;64873;50.102;14.434;2023-07-31T02:57:12;99147.69;;;15.03;71.91
76128;BME280;64873;50.102;14.434;2023-07-31T02:59:38;99143.38;;;15.02;71.34
76128;BME280;64873;50.102;14.434;2023-07-31T03:02:03;99144.19;;;15.03;70.79
76128;BME280;64873;50.102;14.434;2023-07-31T03:04:29;99157.94;;;15.06;70.82
76128;BME280;64873;50.102;14.434;2023-07-31T03:06:54;99159.72;;;15.17;70.56
76128;BME280;64873;50.102;14.434;2023-07-31T03:09:19;99153.09;;;15.25;69.52
76128;BME280;64873;50.102;14.434;2023-07-31T03:11:45;99156.09;;;15.29;69.48
76128;BME280;64873;50.102;14.434;2023-07-31T03:14:10;99147.47;;;15.27;69.37
76128;BME280;64873;50.102;14.434;2023-07-31T03:16:36;99144.84;;;15.32;69.06
76128;BME280;64873;50.102;14.434;2023-07-31T03:19:01;99149.16;;;15.33;68.31
76128;BME280;64873;50.102;14.434;2023-07-31T03:21:26;99149.50;;;15.41;67.90
76128;BME280;64873;50.102;14.434;2023-07-31T03:23:52;99149.88;;;15.50;67.60
76128;BME280;64873;50.102;14.434;2023-07-31T03:26:17;99143.31;;;15.41;67.61
76128;BME280;64873;50.102;14.434;2023-07-31T03:28:43;99155.72;;;15.42;67.55
76128;BME280;64873;50.102;14.434;2023-07-31T03:31:08;99147.41;;;15.43;66.96
76128;BME280;64873;50.102;14.434;2023-07-31T03:33:33;99149.28;;;15.43;67.06
76128;BME280;64873;50.102;14.434;2023-07-31T03:35:59;99148.06;;;15.34;67.38
76128;BME280;64873;50.102;14.434;2023-07-31T03:38:24;99142.75;;;15.39;66.66
76128;BME280;64873;50.102;14.434;2023-07-31T03:40:50;99142.22;;;15.37;67.52
76128;BME280;64873;50.102;14.434;2023-07-31T03:43:15;99149.41;;;15.31;67.63
76128;BME280;64873;50.102;14.434;2023-07-31T03:45:41;99144.91;;;15.37;67.35
76128;BME280;64873;50.102;14.434;2023-07-31T03:48:06;99146.38;;;15.28;67.85
76128;BME280;64873;50.102;14.434;2023-07-31T03:50:33;99153.47;;;15.34;67.04
76128;BME280;64873;50.102;14.434;2023-07-31T03:52:58;99155.91;;;15.35;67.08
76128;BME280;64873;50.102;14.434;2023-07-31T03:55:23;99153.53;;;15.39;67.38
76128;BME280;64873;50.102;14.434;2023-07-31T03:57:49;99163.22;;;15.40;67.24
76128;BME280;64873;50.102;14.434;2023-07-31T04:00:14;99156.34;;;15.49;67.02
76128;BME280;64873;50.102;14.434;2023-07-31T04:02:40;99159.34;;;15.53;66.78
76128;BME280;64873;50.102;14.434;2023-07-31T04:05:06;99158.84;;;15.56;66.83
76128;BME280;64873;50.102;14.434;2023-07-31T04:07:31;99158.75;;;15.67;66.56
76128;BME280;64873;50.102;14.434;2023-07-31T04:09:57;99154.78;;;15.75;66.32
76128;BME280;64873;50.102;14.434;2023-07-31T04:12:22;99160.97;;;15.76;66.01
76128;BME280;64873;50.102;14.434;2023-07-31T04:14:48;99146.94;;;15.73;66.28
76128;BME280;64873;50.102;14.434;2023-07-31T04:17:13;99144.97;;;15.91;65.63
76128;BME280;64873;50.102;14.434;2023-07-31T04:19:39;99140.19;;;15.98;65.28
76128;BME280;64873;50.102;14.434;2023-07-31T04:22:04;99151.22;;;15.96;65.46
76128;BME280;64873;50.102;14.434;2023-07-31T04:24:30;99149.34;;;15.97;65.60
76128;BME280;64873;50.102;14.434;2023-07-31T04:26:55;99150.91;;;15.93;66.18
76128;BME280;64873;50.102;14.434;2023-07-31T04:29:20;99147.91;;;16.16;65.18
76128;BME280;64873;50.102;14.434;2023-07-31T04:31:47;99146.44;;;16.04;65.54
76128;BME280;64873;50.102;14.434;2023-07-31T04:34:13;99151.56;;;16.05;65.67
76128;BME280;64873;50.102;14.434;2023-07-31T04:36:38;99155.06;;;16.06;65.57
76128;BME280;64873;50.102;14.434;2023-07-31T04:39:03;99150.41;;;15.96;66.27
76128;BME280;64873;50.102;14.434;2023-07-31T04:41:29;99145.84;;;15.96;66.22
76128;BME280;64873;50.102;14.434;2023-07-31T04:43:54;99154.19;;;15.95;66.32
76128;BME280;64873;50.102;14.434;2023-07-31T04:46:20;99143.41;;;15.95;66.43
76128;BME280;64873;50.102;14.434;2023-07-31T04:48:45;99150.38;;;15.91;66.61
76128;BME280;64873;50.102;14.434;2023-07-31T04:51:11;99148.88;;;16.05;66.11
76128;BME280;64873;50.102;14.434;2023-07-31T04:53:36;99155.53;;;16.24;65.24
76128;BME280;64873;50.102;14.434;2023-07-31T04:56:02;99151.28;;;16.34;64.95
76128;BME280;64873;50.102;14.434;2023-07-31T04:58:27;99148.50;;;16.23;65.46
76128;BME280;64873;50.102;14.434;2023-07-31T05:00:53;99149.66;;;16.33;64.74
76128;BME280;64873;50.102;14.434;2023-07-31T05:03:18;99149.66;;;16.33;64.91
76128;BME280;64873;50.102;14.434;2023-07-31T05:05:44;99151.53;;;16.32;64.74
76128;BME280;64873;50.102;14.434;2023-07-31T05:08:09;99156.63;;;16.29;65.00
76128;BME280;64873;50.102;14.434;2023-07-31T05:10:34;99159.16;;;16.40;65.13
76128;BME280;64873;50.102;14.434;2023-07-31T05:13:00;99164.91;;;16.49;64.60
76128;BME280;64873;50.102;14.434;2023-07-31T05:15:25;99169.09;;;16.35;65.50
76128;BME280;64873;50.102;14.434;2023-07-31T05:17:51;99156.22;;;16.47;65.07
76128;BME280;64873;50.102;14.434;2023-07-31T05:20:16;99164.31;;;16.47;65.06
76128;BME280;64873;50.102;14.434;2023-07-31T05:22:42;99151.50;;;16.64;64.68
76128;BME280;64873;50.102;14.434;2023-07-31T05:25:07;99160.97;;;16.67;64.26
76128;BME280;64873;50.102;14.434;2023-07-31T05:27:33;99153.81;;;16.77;63.90
76128;BME280;64873;50.102;14.434;2023-07-31T05:29:58;99158.91;;;16.42;64.72
76128;BME280;64873;50.102;14.434;2023-07-31T05:32:24;99151.81;;;16.31;65.91
76128;BME280;64873;50.102;14.434;2023-07-31T05:34:52;99157.94;;;16.58;65.06
76128;BME280;64873;50.102;14.434;2023-07-31T05:37:18;99160.63;;;16.58;64.53
76128;BME280;64873;50.102;14.434;2023-07-31T05:39:44;99153.66;;;16.62;64.84
76128;BME280;64873;50.102;14.434;2023-07-31T05:42:09;99151.13;;;16.83;64.35
76128;BME280;64873;50.102;14.434;2023-07-31T05:44:35;99148.63;;;17.23;62.46
76128;BME280;64873;50.102;14.434;2023-07-31T05:47:00;99153.41;;;17.06;63.32
76128;BME280;64873;50.102;14.434;2023-07-31T05:49:26;99151.34;;;17.18;63.11
76128;BME280;64873;50.102;14.434;2023-07-31T05:51:51;99145.50;;;17.42;62.10
76128;BME280;64873;50.102;14.434;2023-07-31T05:54:16;99156.44;;;17.15;63.05
76128;BME280;64873;50.102;14.434;2023-07-31T05:56:42;99148.63;;;17.13;63.49
76128;BME280;64873;50.102;14.434;2023-07-31T05:59:09;99150.34;;;17.45;62.11
76128;BME280;64873;50.102;14.434;2023-07-31T06:01:35;99143.78;;;17.20;62.77
76128;BME280;64873;50.102;14.434;2023-07-31T06:04:00;99137.56;;;17.20;62.87
76128;BME280;64873;50.102;14.434;2023-07-31T06:06:27;99128.94;;;17.28;63.75
76128;BME280;64873;50.102;14.434;2023-07-31T06:08:52;99133.63;;;17.58;62.13
76128;BME280;64873;50.102;14.434;2023-07-31T06:11:19;99126.72;;;17.77;61.07
76128;BME280;64873;50.102;14.434;2023-07-31T06:13:45;99121.28;;;17.72;61.21
76128;BME280;64873;50.102;14.434;2023-07-31T06:16:12;99121.31;;;17.88;60.55
76128;BME280;64873;50.102;14.434;2023-07-31T06:18:37;99122.72;;;18.36;59.01
76128;BME280;64873;50.102;14.434;2023-07-31T06:21:02;99118.63;;;18.23;59.14
76128;BME280;64873;50.102;14.434;2023-07-31T06:23:28;99126.75;;;18.13;59.43
76128;BME280;64873;50.102;14.434;2023-07-31T06:25:53;99108.31;;;18.61;57.86
76128;BME280;64873;50.102;14.434;2023-07-31T06:28:19;99104.56;;;18.42;58.61
76128;BME280;64873;50.102;14.434;2023-07-31T06:30:44;99107.25;;;18.82;57.67
76128;BME280;64873;50.102;14.434;2023-07-31T06:33:09;99106.16;;;18.73;58.15
76128;BME280;64873;50.102;14.434;2023-07-31T06:35:35;99094.25;;;18.79;57.89
76128;BME280;64873;50.102;14.434;2023-07-31T06:38:00;99097.44;;;18.97;57.28
76128;BME280;64873;50.102;14.434;2023-07-31T06:40:27;99107.81;;;18.54;58.28
76128;BME280;64873;50.102;14.434;2023-07-31T06:42:53;99102.69;;;18.47;58.54
76128;BME280;64873;50.102;14.434;2023-07-31T06:45:18;99107.28;;;18.31;59.57
76128;BME280;64873;50.102;14.434;2023-07-31T06:47:43;99096.97;;;18.23;59.87
76128;BME280;64873;50.102;14.434;2023-07-31T06:50:09;99096.19;;;18.38;59.92
76128;BME280;64873;50.102;14.434;2023-07-31T06:52:34;99096.97;;;18.69;58.28
76128;BME280;64873;50.102;14.434;2023-07-31T06:55:15;99101.03;;;18.77;57.49
76128;BME280;64873;50.102;14.434;2023-07-31T06:57:43;99108.63;;;18.54;57.56
76128;BME280;64873;50.102;14.434;2023-07-31T07:00:08;99119.16;;;18.41;57.96
76128;BME280;64873;50.102;14.434;2023-07-31T07:02:34;99102.94;;;18.41;57.88
76128;BME280;64873;50.102;14.434;2023-07-31T07:04:59;99103.44;;;18.63;57.35
76128;BME280;64873;50.102;14.434;2023-07-31T07:07:25;99103.97;;;18.85;56.75
76128;BME280;64873;50.102;14.434;2023-07-31T07:09:50;99097.53;;;18.71;57.00
76128;BME280;64873;50.102;14.434;2023-07-31T07:12:15;99095.25;;;19.04;55.87
76128;BME280;64873;50.102;14.434;2023-07-31T07:14:41;99101.22;;;19.01;56.16
76128;BME280;64873;50.102;14.434;2023-07-31T07:17:06;99103.97;;;18.90;56.12
76128;BME280;64873;50.102;14.434;2023-07-31T07:19:32;99096.44;;;18.72;56.33
76128;BME280;64873;50.102;14.434;2023-07-31T07:21:57;99096.94;;;18.64;56.54
76128;BME280;64873;50.102;14.434;2023-07-31T07:24:24;99092.09;;;18.71;57.00
76128;BME280;64873;50.102;14.434;2023-07-31T07:26:50;99091.81;;;18.78;56.44
76128;BME280;64873;50.102;14.434;2023-07-31T07:29:15;99086.16;;;18.54;56.70
76128;BME280;64873;50.102;14.434;2023-07-31T07:31:42;99099.13;;;18.62;56.90
76128;BME280;64873;50.102;14.434;2023-07-31T07:34:07;99102.13;;;18.40;57.08
76128;BME280;64873;50.102;14.434;2023-07-31T07:36:32;99095.91;;;18.50;57.13
76128;BME280;64873;50.102;14.434;2023-07-31T07:38:58;99105.09;;;18.69;56.85
76128;BME280;64873;50.102;14.434;2023-07-31T07:41:23;99094.22;;;18.84;56.73
76128;BME280;64873;50.102;14.434;2023-07-31T07:43:49;99091.00;;;18.77;56.80
76128;BME280;64873;50.102;14.434;2023-07-31T07:46:14;99103.44;;;18.78;56.43
76128;BME280;64873;50.102;14.434;2023-07-31T07:48:40;99108.28;;;18.91;56.48
76128;BME280;64873;50.102;14.434;2023-07-31T07:51:05;99100.22;;;18.76;56.77
76128;BME280;64873;50.102;14.434;2023-07-31T07:53:30;99105.06;;;18.79;56.72
76128;BME280;64873;50.102;14.434;2023-07-31T07:55:56;99111.47;;;19.14;55.91
76128;BME280;64873;50.102;14.434;2023-07-31T07:58:21;99102.72;;;19.27;56.01
76128;BME280;64873;50.102;14.434;2023-07-31T08:00:53;99109.38;;;18.85;56.48
76128;BME280;64873;50.102;14.434;2023-07-31T08:03:18;99110.31;;;19.30;55.67
76128;BME280;64873;50.102;14.434;2023-07-31T08:05:44;99111.38;;;19.34;55.57
76128;BME280;64873;50.102;14.434;2023-07-31T08:08:14;99106.84;;;19.20;55.60
76128;BME280;64873;50.102;14.434;2023-07-31T08:10:40;99102.25;;;19.15;55.89
76128;BME280;64873;50.102;14.434;2023-07-31T08:13:05;99108.16;;;19.22;55.78
76128;BME280;64873;50.102;14.434;2023-07-31T08:15:31;99113.66;;;19.12;55.86
76128;BME280;64873;50.102;14.434;2023-07-31T08:17:56;99106.34;;;19.07;55.85
76128;BME280;64873;50.102;14.434;2023-07-31T08:20:21;99109.88;;;18.98;56.40
76128;BME280;64873;50.102;14.434;2023-07-31T08:22:47;99105.91;;;18.70;56.85
76128;BME280;64873;50.102;14.434;2023-07-31T08:25:12;99113.19;;;18.64;57.38
76128;BME280;64873;50.102;14.434;2023-07-31T08:27:38;99121.31;;;18.74;57.60
76128;BME280;64873;50.102;14.434;2023-07-31T08:30:03;99113.75;;;18.56;57.90
76128;BME280;64873;50.102;14.434;2023-07-31T08:32:29;99115.09;;;18.69;58.10
76128;BME280;64873;50.102;14.434;2023-07-31T08:34:55;99113.75;;;18.61;57.99
76128;BME280;64873;50.102;14.434;2023-07-31T08:37:20;99107.25;;;18.77;57.82
76128;BME280;64873;50.102;14.434;2023-07-31T08:39:45;99106.44;;;18.67;58.33
76128;BME280;64873;50.102;14.434;2023-07-31T08:42:12;99115.91;;;18.59;58.09
76128;BME280;64873;50.102;14.434;2023-07-31T08:44:38;99108.88;;;18.68;58.13
76128;BME280;64873;50.102;14.434;2023-07-31T08:47:04;99114.81;;;18.70;58.23
76128;BME280;64873;50.102;14.434;2023-07-31T08:49:30;99113.22;;;18.54;58.47
76128;BME280;64873;50.102;14.434;2023-07-31T08:51:56;99114.28;;;18.58;58.67
76128;BME280;64873;50.102;14.434;2023-07-31T08:54:23;99114.00;;;18.75;58.53
76128;BME280;64873;50.102;14.434;2023-07-31T08:56:49;99111.59;;;18.68;58.80
76128;BME280;64873;50.102;14.434;2023-07-31T08:59:17;99107.78;;;18.74;58.38
76128;BME280;64873;50.102;14.434;2023-07-31T09:01:47;99112.66;;;18.72;58.63
76128;BME280;64873;50.102;14.434;2023-07-31T09:04:16;99101.28;;;18.70;58.88
76128;BME280;64873;50.102;14.434;2023-07-31T09:06:44;99107.78;;;18.74;58.68
76128;BME280;64873;50.102;14.434;2023-07-31T09:09:10;99108.59;;;18.75;58.75
76128;BME280;64873;50.102;14.434;2023-07-31T09:11:36;99111.28;;;18.85;58.97
76128;BME280;64873;50.102;14.434;2023-07-31T09:14:02;99112.63;;;18.87;58.33
76128;BME280;64873;50.102;14.434;2023-07-31T09:16:33;99118.47;;;19.25;57.76
76128;BME280;64873;50.102;14.434;2023-07-31T09:18:59;99111.91;;;19.41;56.74
76128;BME280;64873;50.102;14.434;2023-07-31T09:21:27;99111.31;;;19.50;57.13
76128;BME280;64873;50.102;14.434;2023-07-31T09:23:53;99110.19;;;19.56;56.98
76128;BME280;64873;50.102;14.434;2023-07-31T09:26:33;99117.50;;;19.65;57.05
76128;BME280;64873;50.102;14.434;2023-07-31T09:29:01;99106.66;;;19.55;56.66
76128;BME280;64873;50.102;14.434;2023-07-31T09:31:38;99103.47;;;19.92;55.94
76128;BME280;64873;50.102;14.434;2023-07-31T09:34:03;99102.03;;;20.05;56.14
76128;BME280;64873;50.102;14.434;2023-07-31T09:36:30;99099.81;;;20.12;55.73
76128;BME280;64873;50.102;14.434;2023-07-31T09:39:02;99102.78;;;20.11;55.22
76128;BME280;64873;50.102;14.434;2023-07-31T09:41:29;99099.63;;;19.98;55.85
76128;BME280;64873;50.102;14.434;2023-07-31T09:43:55;99098.69;;;20.18;55.60
76128;BME280;64873;50.102;14.434;2023-07-31T09:46:20;99092.34;;;20.28;55.90
76128;BME280;64873;50.102;14.434;2023-07-31T09:48:47;99079.59;;;20.58;54.99
76128;BME280;64873;50.102;14.434;2023-07-31T09:51:12;99081.53;;;21.05;53.79
76128;BME280;64873;50.102;14.434;2023-07-31T09:53:38;99070.88;;;21.51;52.89
76128;BME280;64873;50.102;14.434;2023-07-31T09:56:03;99061.41;;;21.49;52.15
76128;BME280;64873;50.102;14.434;2023-07-31T09:58:33;99067.66;;;21.68;51.61
76128;BME280;64873;50.102;14.434;2023-07-31T10:01:01;99063.78;;;22.26;50.42
76128;BME280;64873;50.102;14.434;2023-07-31T10:03:29;99053.75;;;22.68;49.50
76128;BME280;64873;50.102;14.434;2023-07-31T10:05:56;99048.75;;;22.88;49.33
76128;BME280;64873;50.102;14.434;2023-07-31T10:08:27;99039.44;;;22.76;49.52
76128;BME280;64873;50.102;14.434;2023-07-31T10:14:19;99041.41;;;22.29;50.42
76128;BME280;64873;50.102;14.434;2023-07-31T10:16:45;99027.31;;;22.68;49.34
76128;BME280;64873;50.102;14.434;2023-07-31T10:19:10;99034.00;;;22.76;49.38
76128;BME280;64873;50.102;14.434;2023-07-31T10:21:36;99019.25;;;22.77;48.90
76128;BME280;64873;50.102;14.434;2023-07-31T10:24:03;99022.13;;;23.22;47.50
76128;BME280;64873;50.102;14.434;2023-07-31T10:26:31;99013.97;;;23.22;48.01
76128;BME280;64873;50.102;14.434;2023-07-31T10:28:57;99018.00;;;22.28;49.23
76128;BME280;64873;50.102;14.434;2023-07-31T10:31:23;99018.19;;;22.18;49.22
76128;BME280;64873;50.102;14.434;2023-07-31T10:33:50;99011.38;;;22.34;49.75
76128;BME280;64873;50.102;14.434;2023-07-31T10:36:18;98999.06;;;22.23;49.43
76128;BME280;64873;50.102;14.434;2023-07-31T10:38:44;99003.09;;;22.67;49.10
76128;BME280;64873;50.102;14.434;2023-07-31T10:41:09;98998.16;;;22.82;48.34
76128;BME280;64873;50.102;14.434;2023-07-31T10:43:37;98996.25;;;22.97;48.48
76128;BME280;64873;50.102;14.434;2023-07-31T10:46:11;98998.50;;;23.31;47.38
76128;BME280;64873;50.102;14.434;2023-07-31T10:48:38;98994.53;;;23.37;47.76
76128;BME280;64873;50.102;14.434;2023-07-31T10:51:09;98993.59;;;23.78;46.74
76128;BME280;64873;50.102;14.434;2023-07-31T10:53:36;98987.34;;;23.77;46.38
76128;BME280;64873;50.102;14.434;2023-07-31T10:56:09;98980.72;;;23.56;46.80
76128;BME280;64873;50.102;14.434;2023-07-31T10:58:37;98980.44;;;23.57;46.45
76128;BME280;64873;50.102;14.434;2023-07-31T11:01:04;98969.50;;;23.35;46.84
76128;BME280;64873;50.102;14.434;2023-07-31T11:03:44;98963.34;;;23.88;45.72
76128;BME280;64873;50.102;14.434;2023-07-31T11:06:10;98962.03;;;23.27;46.07
76128;BME280;64873;50.102;14.434;2023-07-31T11:15:41;98968.03;;;23.51;45.36
76128;BME280;64873;50.102;14.434;2023-07-31T11:18:07;98956.28;;;23.06;46.44
76128;BME280;64873;50.102;14.434;2023-07-31T11:20:34;98952.66;;;22.83;46.75
76128;BME280;64873;50.102;14.434;2023-07-31T11:23:02;98951.72;;;23.01;46.66
76128;BME280;64873;50.102;14.434;2023-07-31T11:25:31;98949.84;;;22.60;47.34
76128;BME280;64873;50.102;14.434;2023-07-31T11:28:03;98950.41;;;22.85;47.00
76128;BME280;64873;50.102;14.434;2023-07-31T11:30:28;98956.91;;;22.61;47.37
76128;BME280;64873;50.102;14.434;2023-07-31T11:32:55;98952.47;;;22.66;47.45
76128;BME280;64873;50.102;14.434;2023-07-31T11:35:20;98949.00;;;23.01;47.19
76128;BME280;64873;50.102;14.434;2023-07-31T12:37:23;98889.53;;;24.02;43.42
76128;BME280;64873;50.102;14.434;2023-07-31T12:39:49;98895.84;;;23.80;43.79
76128;BME280;64873;50.102;14.434;2023-07-31T12:42:17;98887.00;;;23.74;44.16
76128;BME280;64873;50.102;14.434;2023-07-31T12:44:42;98885.47;;;24.30;43.32
76128;BME280;64873;50.102;14.434;2023-07-31T12:47:08;98882.50;;;24.49;42.69
76128;BME280;64873;50.102;14.434;2023-07-31T12:49:33;98891.94;;;24.03;43.19
76128;BME280;64873;50.102;14.434;2023-07-31T12:51:59;98886.50;;;24.03;43.86
76128;BME280;64873;50.102;14.434;2023-07-31T12:54:24;98878.81;;;24.05;43.51
76128;BME280;64873;50.102;14.434;2023-07-31T12:56:49;98870.31;;;24.15;44.04
76128;BME280;64873;50.102;14.434;2023-07-31T12:59:15;98882.34;;;24.14;43.74
76128;BME280;64873;50.102;14.434;2023-07-31T13:01:40;98878.88;;;23.91;44.00
76128;BME280;64873;50.102;14.434;2023-07-31T13:04:05;98877.25;;;24.22;42.78
76128;BME280;64873;50.102;14.434;2023-07-31T13:06:33;98879.50;;;23.57;43.49
76128;BME280;64873;50.102;14.434;2023-07-31T13:08:59;98871.81;;;23.59;44.22
76128;BME280;64873;50.102;14.434;2023-07-31T13:11:24;98876.22;;;23.24;44.15
76128;BME280;64873;50.102;14.434;2023-07-31T13:13:49;98860.56;;;23.61;44.04
76128;BME280;64873;50.102;14.434;2023-07-31T13:16:15;98861.81;;;23.77;43.81
76128;BME280;64873;50.102;14.434;2023-07-31T13:18:40;98861.84;;;23.32;43.53
76128;BME280;64873;50.102;14.434;2023-07-31T13:21:05;98851.81;;;23.41;43.64
76128;BME280;64873;50.102;14.434;2023-07-31T13:23:31;98846.78;;;23.57;43.64
76128;BME280;64873;50.102;14.434;2023-07-31T13:25:56;98859.84;;;24.00;42.59
76128;BME280;64873;50.102;14.434;2023-07-31T13:28:21;98838.38;;;24.16;42.73
76128;BME280;64873;50.102;14.434;2023-07-31T13:30:47;98842.13;;;23.58;43.45
76128;BME280;64873;50.102;14.434;2023-07-31T13:33:12;98838.13;;;24.43;42.30
76128;BME280;64873;50.102;14.434;2023-07-31T13:35:38;98843.16;;;23.71;42.64
76128;BME280;64873;50.102;14.434;2023-07-31T13:38:03;98835.53;;;23.81;42.78
76128;BME280;64873;50.102;14.434;2023-07-31T13:40:28;98839.53;;;23.84;42.56
76128;BME280;64873;50.102;14.434;2023-07-31T13:42:54;98818.47;;;24.33;41.95
76128;BME280;64873;50.102;14.434;2023-07-31T13:45:20;98829.16;;;24.78;42.44
76128;BME280;64873;50.102;14.434;2023-07-31T13:47:46;98821.09;;;24.38;41.23
76128;BME280;64873;50.102;14.434;2023-07-31T13:50:11;98826.53;;;24.29;42.73
76128;BME280;64873;50.102;14.434;2023-07-31T13:52:37;98823.59;;;24.26;41.48
76128;BME280;64873;50.102;14.434;2023-07-31T13:55:02;98825.22;;;24.27;41.21
76128;BME280;64873;50.102;14.434;2023-07-31T13:57:27;98824.94;;;24.37;41.90
76128;BME280;64873;50.102;14.434;2023-07-31T13:59:53;98829.19;;;23.41;42.72